Terminal Aerodrome Forecast
Issued by NWS Sterling, VA

Current Version | Previous Version | Graphics & Text | Print | Product List | Glossary On
Versions: 1 2 3 4 5 6 7 8 9 10 11 12 13 14 15 16 17 18 19 20 21 22 23 24 25 26 27 28 29 30 31 32
000
FTUS41 KLWX 261128
TAFIAD
TAF
KIAD 261128Z 2612/2718 07010KT P6SM OVC015
     FM261300 09008KT P6SM OVC008
     FM261500 10008KT 4SM -DZ OVC008
     FM262300 10009KT 2SM -DZ OVC003
     FM270200 12008KT 1SM -DZ OVC008
     FM270600 15006KT P6SM OVC008
     FM271200 19006KT P6SM BKN008
     FM271500 21008KT P6SM BKN010=

USA.gov is the U.S. government's official web portal to all federal, state and local government web resources and services.